createdAt,value
2018-01-03T00:00:20.897Z,5.75
2018-01-03T00:01:25.699Z,5.70
2018-01-03T00:02:30.105Z,5.67
2018-01-03T00:03:34.585Z,5.72
2018-01-03T00:04:39.051Z,5.80
2018-01-03T00:05:43.594Z,5.76
2018-01-03T00:06:48.161Z,5.85
2018-01-03T00:07:53.502Z,5.83
2018-01-03T00:08:57.847Z,5.90
2018-01-03T00:10:02.376Z,5.89
2018-01-03T00:11:06.922Z,5.91
2018-01-03T00:12:11.318Z,5.94
2018-01-03T00:13:33.213Z,5.87
2018-01-03T00:14:37.689Z,5.79
2018-01-03T00:15:42.374Z,5.87
2018-01-03T00:16:47.158Z,5.92
2018-01-03T00:17:52.138Z,5.87
2018-01-03T00:18:56.677Z,5.97
2018-01-03T00:20:01.511Z,5.98
2018-01-03T00:21:05.909Z,5.98
2018-01-03T00:22:10.740Z,5.98
2018-01-03T00:23:15.106Z,5.93
2018-01-03T00:24:24.539Z,5.99
2018-01-03T00:25:28.937Z,5.93
2018-01-03T00:26:33.639Z,5.93
2018-01-03T00:27:38.165Z,5.94
2018-01-03T00:28:42.635Z,5.84
2018-01-03T00:29:47.143Z,5.90
2018-01-03T00:30:51.459Z,5.88
2018-01-03T00:31:56.104Z,5.90
2018-01-03T00:33:00.852Z,5.96
2018-01-03T00:34:05.325Z,6.08
2018-01-03T00:35:09.752Z,6.08
2018-01-03T00:36:14.124Z,6.11
2018-01-03T00:37:18.589Z,6.06
2018-01-03T00:38:22.989Z,6.03
2018-01-03T00:39:28.228Z,6.04
2018-01-03T00:40:32.522Z,5.98
2018-01-03T00:41:37.076Z,6.03
2018-01-03T00:42:41.618Z,6.11
2018-01-03T00:43:47.876Z,6.12
2018-01-03T00:44:52.239Z,6.06
2018-01-03T00:45:56.981Z,6.05
2018-01-03T00:47:01.939Z,6.08
2018-01-03T00:48:06.416Z,6.04
2018-01-03T00:49:10.769Z,6.12
2018-01-03T00:50:15.600Z,6.06
2018-01-03T00:51:19.988Z,6.11
2018-01-03T00:52:25.328Z,6.12
2018-01-03T00:53:29.641Z,6.12
2018-01-03T00:54:34.108Z,6.12
2018-01-03T00:55:38.387Z,6.15
2018-01-03T00:56:43.076Z,6.24
2018-01-03T00:57:47.936Z,6.25
2018-01-03T00:58:52.361Z,6.32
2018-01-03T00:59:56.694Z,6.28
2018-01-03T01:01:01.420Z,6.28
2018-01-03T01:02:05.886Z,6.29
2018-01-03T01:03:23.951Z,6.25
2018-01-03T01:04:29.426Z,6.24
2018-01-03T01:05:33.832Z,6.26
2018-01-03T01:06:38.182Z,6.28
2018-01-03T01:07:42.578Z,6.32
2018-01-03T01:08:47.832Z,6.37
2018-01-03T01:09:52.171Z,6.33
2018-01-03T01:10:56.618Z,6.26
2018-01-03T01:12:01.046Z,6.31
2018-01-03T01:13:05.491Z,6.33
2018-01-03T01:14:10.165Z,6.32
2018-01-03T01:15:17.958Z,6.41
2018-01-03T01:16:23.626Z,6.40
2018-01-03T01:17:36.602Z,6.43
2018-01-03T01:18:41.027Z,6.42
2018-01-03T01:19:45.358Z,6.48
2018-01-03T01:20:50.588Z,6.45
2018-01-03T01:21:55.026Z,6.43
2018-01-03T01:22:59.390Z,6.50
2018-01-03T01:24:04.265Z,6.41
2018-01-03T01:25:08.786Z,6.45
2018-01-03T01:26:13.460Z,6.49
2018-01-03T01:27:18.140Z,6.50
2018-01-03T01:28:22.568Z,6.55
2018-01-03T01:29:26.945Z,6.60
2018-01-03T01:30:31.516Z,6.64
2018-01-03T01:31:35.954Z,6.54
2018-01-03T01:32:40.616Z,6.59
2018-01-03T01:33:45.385Z,6.56
2018-01-03T01:34:50.259Z,6.59
2018-01-03T01:35:54.598Z,6.52
2018-01-03T01:36:58.941Z,6.52
2018-01-03T01:38:03.382Z,6.54
2018-01-03T01:39:07.810Z,6.53
2018-01-03T01:40:13.993Z,6.60
2018-01-03T01:41:18.440Z,6.54
2018-01-03T01:42:22.980Z,6.52
2018-01-03T01:43:28.232Z,6.58
2018-01-03T01:44:32.904Z,6.67
2018-01-03T01:45:37.468Z,6.65
2018-01-03T01:46:42.333Z,6.65
2018-01-03T01:47:46.897Z,6.72
2018-01-03T01:48:59.865Z,6.75
2018-01-03T01:50:04.473Z,6.70
2018-01-03T01:51:08.931Z,6.76
2018-01-03T01:52:13.368Z,6.79
2018-01-03T01:53:18.024Z,6.73
2018-01-03T01:54:23.060Z,6.65
2018-01-03T01:55:27.760Z,6.69
2018-01-03T01:56:33.144Z,6.77
2018-01-03T01:57:37.625Z,6.77
2018-01-03T01:58:42.024Z,6.79
2018-01-03T01:59:46.404Z,6.88
2018-01-03T02:00:51.874Z,6.96
2018-01-03T02:01:56.268Z,6.98
2018-01-03T02:03:00.606Z,6.91
2018-01-03T02:04:05.096Z,6.89
2018-01-03T02:05:09.805Z,6.87
2018-01-03T02:06:14.488Z,6.92
2018-01-03T02:07:18.830Z,6.96
2018-01-03T02:08:23.164Z,6.98
2018-01-03T02:09:28.077Z,7.01
2018-01-03T02:10:32.484Z,7.02
2018-01-03T02:11:36.804Z,6.96
2018-01-03T02:12:41.484Z,6.98
2018-01-03T02:13:45.864Z,6.94
2018-01-03T02:14:53.148Z,6.97
2018-01-03T02:15:57.468Z,6.99
2018-01-03T02:17:02.085Z,7.02
2018-01-03T02:18:06.569Z,7.04
2018-01-03T02:19:11.280Z,7.06
2018-01-03T02:20:15.661Z,7.02
2018-01-03T02:21:20.047Z,7.03
2018-01-03T02:22:25.442Z,7.12
2018-01-03T02:23:29.769Z,7.14
2018-01-03T02:24:34.089Z,7.15
2018-01-03T02:25:38.911Z,7.08
2018-01-03T02:26:43.268Z,7.05
2018-01-03T02:27:48.683Z,7.04
2018-01-03T02:28:53.035Z,7.10
2018-01-03T02:29:57.669Z,7.17
2018-01-03T02:31:02.844Z,7.19
2018-01-03T02:32:07.133Z,7.19
2018-01-03T02:33:11.692Z,7.14
2018-01-03T02:34:16.033Z,7.21
2018-01-03T02:35:20.396Z,7.22
2018-01-03T02:36:25.776Z,7.19
2018-01-03T02:37:30.461Z,7.18
2018-01-03T02:38:35.455Z,7.19
2018-01-03T02:39:40.375Z,7.26
2018-01-03T02:40:44.702Z,7.29
2018-01-03T02:41:49.780Z,7.27
2018-01-03T02:42:54.321Z,7.23
2018-01-03T02:43:58.999Z,7.26
2018-01-03T02:45:05.318Z,7.25
2018-01-03T02:46:09.854Z,7.21
2018-01-03T02:47:14.210Z,7.22
2018-01-03T02:48:18.838Z,7.24
2018-01-03T02:49:23.413Z,7.23
2018-01-03T02:50:27.991Z,7.22
2018-01-03T02:51:32.355Z,7.26
2018-01-03T02:52:36.799Z,7.30
2018-01-03T02:53:41.452Z,7.33
2018-01-03T02:54:45.856Z,7.34
2018-01-03T02:55:50.237Z,7.31
2018-01-03T02:56:54.860Z,7.32
2018-01-03T02:57:59.224Z,7.29
2018-01-03T02:59:03.597Z,7.30
2018-01-03T03:00:18.523Z,7.35
2018-01-03T03:01:22.843Z,7.26
2018-01-03T03:02:27.943Z,7.18
2018-01-03T03:03:32.527Z,7.27
2018-01-03T03:04:37.005Z,7.31
2018-01-03T03:05:41.440Z,7.32
2018-01-03T03:06:46.037Z,7.35
2018-01-03T03:07:51.085Z,7.32
2018-01-03T03:08:55.444Z,7.33
2018-01-03T03:10:00.116Z,7.37
2018-01-03T03:11:04.622Z,7.43
2018-01-03T03:12:08.975Z,7.41
2018-01-03T03:13:13.360Z,7.43
2018-01-03T03:14:27.073Z,7.45
2018-01-03T03:15:32.107Z,7.42
2018-01-03T03:16:44.208Z,7.43
2018-01-03T03:17:49.482Z,7.46
2018-01-03T03:18:53.851Z,7.47
2018-01-03T03:19:58.192Z,7.49
2018-01-03T03:21:02.837Z,7.49
2018-01-03T03:22:07.457Z,7.46
2018-01-03T03:23:11.868Z,7.48
2018-01-03T03:24:20.961Z,7.45
2018-01-03T03:25:25.816Z,7.49
2018-01-03T03:26:30.241Z,7.50
2018-01-03T03:27:34.552Z,7.52
2018-01-03T03:28:39.283Z,7.54
2018-01-03T03:29:44.416Z,7.57
2018-01-03T03:30:49.996Z,7.57
2018-01-03T03:31:54.285Z,7.54
2018-01-03T03:32:58.572Z,7.59
2018-01-03T03:34:03.031Z,7.66
2018-01-03T03:35:07.664Z,7.67
2018-01-03T03:36:11.968Z,7.68
2018-01-03T03:37:16.354Z,7.72
2018-01-03T03:38:20.976Z,7.72
2018-01-03T03:39:26.073Z,7.73
2018-01-03T03:40:30.678Z,7.74
2018-01-03T03:41:35.076Z,7.65
2018-01-03T03:42:39.426Z,7.67
2018-01-03T03:43:44.315Z,7.60
2018-01-03T03:44:48.744Z,7.65
2018-01-03T03:45:53.540Z,7.65
2018-01-03T03:46:58.901Z,7.59
2018-01-03T03:48:03.404Z,7.58
2018-01-03T03:49:08.112Z,7.58
2018-01-03T03:50:12.446Z,7.64
2018-01-03T03:51:16.749Z,7.71
2018-01-03T03:52:21.191Z,7.70
2018-01-03T03:53:25.832Z,7.70
2018-01-03T03:54:30.239Z,7.74
2018-01-03T03:55:34.932Z,7.80
2018-01-03T03:56:39.295Z,7.74
2018-01-03T03:57:43.620Z,7.80
2018-01-03T03:58:48.011Z,7.75
2018-01-03T03:59:52.747Z,7.71
2018-01-03T04:00:57.291Z,7.83
2018-01-03T04:02:01.680Z,7.88
2018-01-03T04:03:06.080Z,7.85
2018-01-03T04:04:10.412Z,7.86
2018-01-03T04:05:14.705Z,7.91
2018-01-03T04:06:19.425Z,7.94
2018-01-03T04:07:23.834Z,7.82
2018-01-03T04:08:28.484Z,7.87
2018-01-03T04:09:33.180Z,7.91
2018-01-03T04:10:37.653Z,7.94
2018-01-03T04:11:41.964Z,7.93
2018-01-03T04:12:46.268Z,7.86
2018-01-03T04:13:50.614Z,7.93
2018-01-03T04:14:55.293Z,7.99
2018-01-03T04:16:00.026Z,8.05
2018-01-03T04:17:04.493Z,8.11
2018-01-03T04:19:16.945Z,8.04
2018-01-03T04:20:21.251Z,8.08
2018-01-03T04:21:25.710Z,8.07
2018-01-03T04:22:29.992Z,8.06
2018-01-03T04:23:34.315Z,8.06
2018-01-03T04:24:38.673Z,8.05
2018-01-03T04:25:43.687Z,8.22
2018-01-03T04:26:48.295Z,8.30
2018-01-03T04:27:52.927Z,8.35
2018-01-03T04:28:57.284Z,8.43
2018-01-03T04:30:02.699Z,8.38
2018-01-03T04:31:07.058Z,8.35
2018-01-03T04:32:11.393Z,8.35
2018-01-03T04:33:15.790Z,8.33
2018-01-03T04:34:20.415Z,8.33
2018-01-03T04:35:24.869Z,8.35
2018-01-03T04:36:29.244Z,8.31
2018-01-03T04:37:33.603Z,8.22
2018-01-03T04:38:38.093Z,8.17
2018-01-03T04:39:42.870Z,8.16
2018-01-03T04:40:47.341Z,8.25
2018-01-03T04:41:51.681Z,8.30
2018-01-03T04:42:58.741Z,8.25
2018-01-03T04:44:03.097Z,8.29
2018-01-03T04:45:07.828Z,8.28
2018-01-03T04:46:12.521Z,8.24
2018-01-03T04:47:16.909Z,8.30
2018-01-03T04:48:22.499Z,8.33
2018-01-03T04:49:27.711Z,8.38
2018-01-03T04:50:31.980Z,8.42
2018-01-03T04:51:36.319Z,8.45
2018-01-03T04:52:40.743Z,8.44
2018-01-03T04:53:45.082Z,8.46
2018-01-03T04:54:50.427Z,8.50
2018-01-03T04:55:54.925Z,8.43
2018-01-03T04:56:59.402Z,8.40
2018-01-03T04:58:04.289Z,8.39
2018-01-03T04:59:08.681Z,8.37
2018-01-03T05:00:23.888Z,8.44
2018-01-03T05:01:31.196Z,8.61
2018-01-03T05:02:35.492Z,8.67
2018-01-03T05:03:39.963Z,8.63
2018-01-03T05:04:44.582Z,8.65
2018-01-03T05:05:49.038Z,8.68
2018-01-03T05:06:53.331Z,8.70
2018-01-03T05:07:57.837Z,8.76
2018-01-03T05:09:02.264Z,8.72
2018-01-03T05:10:07.608Z,8.66
2018-01-03T05:11:12.318Z,8.70
2018-01-03T05:12:16.641Z,8.69
2018-01-03T05:13:20.956Z,8.63
2018-01-03T05:14:25.396Z,8.63
2018-01-03T05:15:30.475Z,8.66
2018-01-03T05:16:35.233Z,8.64
2018-01-03T05:17:39.925Z,8.61
2018-01-03T05:18:44.216Z,8.57
2018-01-03T05:19:48.677Z,8.53
2018-01-03T05:20:53.913Z,8.56
2018-01-03T05:21:58.205Z,8.55
2018-01-03T05:23:02.663Z,8.57
2018-01-03T05:24:07.241Z,8.58
2018-01-03T05:25:12.021Z,8.58
2018-01-03T05:26:16.310Z,8.59
2018-01-03T05:27:20.630Z,8.57
2018-01-03T05:28:24.994Z,8.58
2018-01-03T05:29:30.357Z,8.59
2018-01-03T05:30:34.920Z,8.58
2018-01-03T05:31:39.253Z,8.58
2018-01-03T05:32:43.575Z,8.61
2018-01-03T05:33:47.944Z,8.59
2018-01-03T05:34:52.546Z,8.64
2018-01-03T05:35:57.750Z,8.64
2018-01-03T05:37:02.343Z,8.63
2018-01-03T05:38:07.031Z,8.68
2018-01-03T05:39:11.413Z,8.67
2018-01-03T05:40:15.907Z,8.65
2018-01-03T05:41:20.577Z,8.63
2018-01-03T05:42:24.867Z,8.64
2018-01-03T05:43:29.793Z,8.65
2018-01-03T05:44:34.180Z,8.63
2018-01-03T05:45:38.729Z,8.65
2018-01-03T05:46:43.078Z,8.64
2018-01-03T05:47:47.681Z,8.63
2018-01-03T05:48:52.912Z,8.60
2018-01-03T05:49:57.497Z,8.60
2018-01-03T05:51:01.912Z,8.54
2018-01-03T05:52:06.272Z,8.53
2018-01-03T05:53:10.637Z,8.49
2018-01-03T05:54:15.105Z,8.51
2018-01-03T05:55:19.406Z,8.49
2018-01-03T05:56:24.014Z,8.50
2018-01-03T05:57:28.977Z,8.52
2018-01-03T05:58:33.274Z,8.53
2018-01-03T05:59:37.667Z,8.54
2018-01-03T06:00:42.709Z,8.55
2018-01-03T06:01:47.140Z,8.57
2018-01-03T06:02:51.963Z,8.56
2018-01-03T06:03:56.729Z,8.54
2018-01-03T06:05:01.325Z,8.51
2018-01-03T06:06:06.013Z,8.45
2018-01-03T06:07:10.734Z,8.48
2018-01-03T06:08:15.233Z,8.40
2018-01-03T06:09:19.538Z,8.35
2018-01-03T06:10:23.940Z,8.36
2018-01-03T06:11:28.266Z,8.35
2018-01-03T06:12:32.582Z,8.36
2018-01-03T06:13:38.200Z,8.37
2018-01-03T06:14:42.981Z,8.33
2018-01-03T06:15:47.564Z,8.34
2018-01-03T06:16:53.032Z,8.34
2018-01-03T06:17:57.374Z,8.26
2018-01-03T06:19:01.718Z,8.25
2018-01-03T06:20:06.060Z,8.22
2018-01-03T06:21:10.384Z,8.17
2018-01-03T06:22:14.860Z,8.16
2018-01-03T06:23:19.245Z,8.18
2018-01-03T06:24:31.507Z,8.10
2018-01-03T06:25:35.862Z,8.05
2018-01-03T06:26:40.328Z,8.09
2018-01-03T06:27:44.988Z,8.12
2018-01-03T06:28:49.323Z,8.16
2018-01-03T06:29:53.812Z,8.13
2018-01-03T06:30:58.510Z,8.17
2018-01-03T06:32:03.249Z,8.17
2018-01-03T06:33:07.785Z,8.18
2018-01-03T06:34:12.096Z,8.22
2018-01-03T06:35:16.425Z,8.25
2018-01-03T06:36:20.738Z,8.23
2018-01-03T06:37:25.493Z,8.19
2018-01-03T06:38:29.793Z,8.25
2018-01-03T06:39:34.511Z,8.23
2018-01-03T06:40:39.108Z,8.25
2018-01-03T06:41:43.660Z,8.25
2018-01-03T06:42:48.844Z,8.26
2018-01-03T06:43:53.674Z,8.23
2018-01-03T06:44:59.067Z,8.26
2018-01-03T06:46:03.688Z,8.28
2018-01-03T06:47:08.019Z,8.28
2018-01-03T06:48:16.752Z,8.28
2018-01-03T06:49:21.069Z,8.28
2018-01-03T06:50:25.519Z,8.29
2018-01-03T06:51:30.821Z,8.28
2018-01-03T06:52:35.214Z,8.28
2018-01-03T06:53:39.652Z,8.25
2018-01-03T06:54:43.987Z,8.29
2018-01-03T06:55:49.053Z,8.35
2018-01-03T06:56:53.520Z,8.37
2018-01-03T06:57:57.835Z,8.39
2018-01-03T06:59:02.152Z,8.34
2018-01-03T07:00:08.150Z,8.32
2018-01-03T07:01:12.864Z,8.29
2018-01-03T07:02:17.230Z,8.25
2018-01-03T07:03:21.552Z,8.25
2018-01-03T07:04:25.971Z,8.20
2018-01-03T07:05:30.259Z,8.14
2018-01-03T07:06:34.881Z,8.12
2018-01-03T07:07:39.193Z,8.11
2018-01-03T07:08:44.119Z,8.07
2018-01-03T07:09:48.536Z,8.04
2018-01-03T07:10:52.919Z,7.99
2018-01-03T07:11:57.272Z,8.02
2018-01-03T07:13:01.911Z,8.02
2018-01-03T07:14:07.341Z,7.96
2018-01-03T07:15:14.536Z,7.94
2018-01-03T07:16:19.089Z,7.92
2018-01-03T07:18:22.006Z,7.91
2018-01-03T07:19:28.404Z,7.91
2018-01-03T07:20:32.757Z,7.93
2018-01-03T07:21:37.134Z,7.90
2018-01-03T07:22:41.563Z,7.85
2018-01-03T07:23:45.887Z,7.80
2018-01-03T07:24:50.257Z,7.73
2018-01-03T07:25:54.655Z,7.68
2018-01-03T07:26:58.972Z,7.70
2018-01-03T07:28:03.345Z,7.63
2018-01-03T07:29:07.837Z,7.59
2018-01-03T07:30:14.253Z,7.60
2018-01-03T07:31:18.630Z,7.51
2018-01-03T07:32:27.815Z,7.49
2018-01-03T07:33:32.177Z,7.44
2018-01-03T07:34:36.521Z,7.45
2018-01-03T07:35:40.973Z,7.49
2018-01-03T07:36:45.365Z,7.47
2018-01-03T07:37:49.674Z,7.43
2018-01-03T07:38:54.298Z,7.36
2018-01-03T07:39:58.698Z,7.35
2018-01-03T07:41:03.178Z,7.33
2018-01-03T07:42:07.564Z,7.30
2018-01-03T07:43:12.552Z,7.29
2018-01-03T07:44:16.910Z,7.39
2018-01-03T07:45:22.149Z,7.41
2018-01-03T07:46:27.492Z,7.40
2018-01-03T07:47:31.937Z,7.39
2018-01-03T07:48:36.321Z,7.36
2018-01-03T07:49:41.494Z,7.39
2018-01-03T07:50:49.747Z,7.41
2018-01-03T07:51:55.156Z,7.37
2018-01-03T07:53:00.673Z,7.43
2018-01-03T07:54:05.981Z,7.38
2018-01-03T07:55:10.365Z,7.35
2018-01-03T07:56:18.573Z,7.30
2018-01-03T07:57:23.164Z,7.28
2018-01-03T07:58:28.438Z,7.32
2018-01-03T07:59:32.781Z,7.30
2018-01-03T08:00:37.595Z,7.33
2018-01-03T08:01:42.818Z,7.36
2018-01-03T08:02:47.168Z,7.42
2018-01-03T08:03:51.929Z,7.45
2018-01-03T08:04:56.324Z,7.48
2018-01-03T08:06:01.686Z,7.50
2018-01-03T08:07:06.081Z,7.50
2018-01-03T08:08:10.664Z,7.53
2018-01-03T08:09:15.570Z,7.52
2018-01-03T08:10:20.031Z,7.44
2018-01-03T08:11:24.367Z,7.37
2018-01-03T08:12:29.256Z,7.29
2018-01-03T08:13:33.690Z,7.26
2018-01-03T08:14:38.028Z,7.27
2018-01-03T08:15:42.764Z,7.25
2018-01-03T08:16:47.626Z,7.27
2018-01-03T08:17:51.964Z,7.19
2018-01-03T08:18:56.584Z,7.14
2018-01-03T08:20:00.945Z,7.12
2018-01-03T08:21:05.429Z,7.09
2018-01-03T08:22:10.357Z,7.06
2018-01-03T08:23:16.129Z,7.01
2018-01-03T08:24:20.622Z,7.02
2018-01-03T08:25:33.862Z,7.00
2018-01-03T08:26:38.635Z,6.96
2018-01-03T08:27:42.997Z,6.93
2018-01-03T08:28:47.758Z,6.95
2018-01-03T08:29:52.324Z,7.01
2018-01-03T08:30:56.901Z,6.97
2018-01-03T08:32:01.340Z,6.89
2018-01-03T08:33:06.082Z,6.85
2018-01-03T08:34:10.760Z,6.83
2018-01-03T08:35:15.653Z,6.81
2018-01-03T08:36:25.304Z,6.75
2018-01-03T08:37:30.302Z,6.71
2018-01-03T08:38:34.654Z,6.76
2018-01-03T08:39:39.076Z,6.76
2018-01-03T08:40:43.817Z,6.76
2018-01-03T08:41:48.172Z,6.70
2018-01-03T08:42:52.600Z,6.71
2018-01-03T08:43:56.980Z,6.74
2018-01-03T08:45:03.228Z,6.78
2018-01-03T08:46:07.907Z,6.76
2018-01-03T08:47:13.043Z,6.74
2018-01-03T08:48:25.921Z,6.78
2018-01-03T08:49:30.955Z,6.76
2018-01-03T08:50:35.348Z,6.66
2018-01-03T08:51:39.792Z,6.63
2018-01-03T08:52:44.605Z,6.63
2018-01-03T08:53:48.940Z,6.57
2018-01-03T08:54:53.360Z,6.47
2018-01-03T08:55:58.157Z,6.43
2018-01-03T08:57:02.570Z,6.42
2018-01-03T08:58:09.380Z,6.38
2018-01-03T08:59:13.703Z,6.39
2018-01-03T09:00:18.376Z,6.39
2018-01-03T09:01:22.938Z,6.39
2018-01-03T09:02:28.365Z,6.38
2018-01-03T09:03:33.052Z,6.42
2018-01-03T09:04:37.521Z,6.42
2018-01-03T09:05:41.905Z,6.45
2018-01-03T09:06:46.217Z,6.42
2018-01-03T09:07:50.618Z,6.41
2018-01-03T09:08:55.369Z,6.43
2018-01-03T09:10:00.087Z,6.42
2018-01-03T09:11:04.428Z,6.45
2018-01-03T09:12:09.052Z,6.42
2018-01-03T09:13:13.493Z,6.43
2018-01-03T09:14:17.882Z,6.42
2018-01-03T09:15:32.809Z,6.47
2018-01-03T09:16:37.893Z,6.51
2018-01-03T09:17:42.228Z,6.53
2018-01-03T09:18:46.548Z,6.57
2018-01-03T09:19:50.932Z,6.64
2018-01-03T09:20:55.281Z,6.66
2018-01-03T09:22:00.015Z,6.66
2018-01-03T09:23:04.420Z,6.66
2018-01-03T09:24:08.777Z,6.70
2018-01-03T09:25:14.564Z,6.64
2018-01-03T09:26:19.056Z,6.65
2018-01-03T09:27:23.429Z,6.62
2018-01-03T09:28:27.883Z,6.66
2018-01-03T09:29:32.274Z,6.70
2018-01-03T09:30:37.122Z,6.75
2018-01-03T09:31:41.484Z,6.75
2018-01-03T09:32:46.237Z,6.82
2018-01-03T09:33:50.852Z,6.83
2018-01-03T09:34:55.186Z,6.81
2018-01-03T09:35:59.633Z,6.70
2018-01-03T09:37:05.048Z,6.64
2018-01-03T09:38:09.461Z,6.66
2018-01-03T09:39:13.805Z,6.73
2018-01-03T09:40:18.502Z,6.75
2018-01-03T09:41:23.414Z,6.78
2018-01-03T09:42:28.847Z,6.81
2018-01-03T09:43:33.965Z,6.87
2018-01-03T09:44:38.496Z,6.85
2018-01-03T09:45:43.175Z,6.85
2018-01-03T09:46:47.575Z,6.86
2018-01-03T09:47:51.888Z,6.89
2018-01-03T09:48:57.317Z,6.90
2018-01-03T09:50:01.804Z,6.94
2018-01-03T09:51:06.316Z,6.92
2018-01-03T09:52:11.080Z,6.90
2018-01-03T09:53:16.012Z,6.92
2018-01-03T09:54:20.577Z,6.99
2018-01-03T09:55:24.942Z,6.97
2018-01-03T09:56:30.276Z,6.90
2018-01-03T09:57:38.036Z,6.90
2018-01-03T09:58:42.401Z,6.88
2018-01-03T09:59:46.832Z,6.81
2018-01-03T10:00:51.393Z,6.81
2018-01-03T10:01:57.160Z,6.81
2018-01-03T10:03:02.847Z,6.86
2018-01-03T10:04:07.192Z,6.82
2018-01-03T10:05:19.145Z,6.79
2018-01-03T10:06:27.943Z,6.77
2018-01-03T10:07:42.549Z,6.77
2018-01-03T10:08:47.540Z,6.78
2018-01-03T10:09:51.915Z,6.78
2018-01-03T10:10:56.677Z,6.73
2018-01-03T10:12:01.028Z,6.73
2018-01-03T10:13:05.557Z,6.74
2018-01-03T10:14:10.035Z,6.71
2018-01-03T10:15:16.943Z,6.67
2018-01-03T10:16:21.482Z,6.64
2018-01-03T10:17:32.443Z,6.61
2018-01-03T10:18:36.885Z,6.58
2018-01-03T10:19:41.233Z,6.56
2018-01-03T10:20:45.625Z,6.53
2018-01-03T10:21:50.385Z,6.53
2018-01-03T10:22:54.980Z,6.50
2018-01-03T10:23:59.384Z,6.51
2018-01-03T10:25:04.101Z,6.49
2018-01-03T10:26:08.589Z,6.45
2018-01-03T10:27:14.182Z,6.42
2018-01-03T10:28:18.677Z,6.46
2018-01-03T10:29:23.073Z,6.48
2018-01-03T10:30:28.573Z,6.47
2018-01-03T10:31:33.215Z,6.41
2018-01-03T10:32:38.377Z,6.36
2018-01-03T10:33:43.099Z,6.34
2018-01-03T10:34:47.623Z,6.33
2018-01-03T10:35:52.865Z,6.30
2018-01-03T10:36:57.216Z,6.27
2018-01-03T10:38:01.643Z,6.25
2018-01-03T10:39:06.374Z,6.24
2018-01-03T10:40:18.128Z,6.29
2018-01-03T10:41:22.872Z,6.28
2018-01-03T10:42:28.885Z,6.29
2018-01-03T10:43:33.407Z,6.27
2018-01-03T10:44:38.147Z,6.25
2018-01-03T10:45:42.853Z,6.25
2018-01-03T10:46:47.260Z,6.23
2018-01-03T10:47:51.688Z,6.22
2018-01-03T10:48:56.457Z,6.25
2018-01-03T10:50:00.930Z,6.21
2018-01-03T10:51:05.352Z,6.16
2018-01-03T10:52:09.729Z,6.12
2018-01-03T10:53:17.684Z,6.10
2018-01-03T10:54:22.207Z,6.08
2018-01-03T10:55:27.916Z,6.07
2018-01-03T10:56:32.661Z,6.05
2018-01-03T10:57:37.254Z,6.03
2018-01-03T10:58:41.824Z,6.03
2018-01-03T10:59:46.199Z,6.02
2018-01-03T11:00:51.135Z,6.07
2018-01-03T11:01:55.619Z,6.04
2018-01-03T11:03:00.408Z,6.04
2018-01-03T11:04:05.183Z,5.98
2018-01-03T11:05:09.589Z,5.97
2018-01-03T11:06:14.922Z,5.94
2018-01-03T11:07:22.756Z,5.94
2018-01-03T11:08:27.105Z,5.95
2018-01-03T11:09:32.588Z,5.94
2018-01-03T11:10:36.997Z,5.89
2018-01-03T11:11:41.423Z,5.90
2018-01-03T11:12:45.925Z,5.86
2018-01-03T11:13:50.706Z,5.80
2018-01-03T11:14:55.136Z,5.77
2018-01-03T11:16:00.492Z,5.79
2018-01-03T11:17:04.452Z,5.77
2018-01-03T11:18:08.896Z,5.75
2018-01-03T11:19:13.352Z,5.74
2018-01-03T11:20:17.742Z,5.67
2018-01-03T11:21:22.689Z,5.62
2018-01-03T11:22:27.383Z,5.56
2018-01-03T11:23:32.776Z,5.53
2018-01-03T11:24:37.349Z,5.55
2018-01-03T11:25:42.069Z,5.47
2018-01-03T11:26:46.516Z,5.47
2018-01-03T11:27:50.982Z,5.46
2018-01-03T11:28:55.436Z,5.45
2018-01-03T11:29:59.861Z,5.38
2018-01-03T11:31:04.467Z,5.37
2018-01-03T11:32:13.490Z,5.32
2018-01-03T11:33:19.018Z,5.32
2018-01-03T11:34:23.479Z,5.30
2018-01-03T11:35:28.683Z,5.33
2018-01-03T11:36:33.258Z,5.30
2018-01-03T11:37:37.758Z,5.25
2018-01-03T11:38:42.786Z,5.23
2018-01-03T11:39:48.214Z,5.22
2018-01-03T11:40:52.762Z,5.21
2018-01-03T11:41:57.326Z,5.20
2018-01-03T11:43:01.917Z,5.17
2018-01-03T11:44:06.709Z,5.14
2018-01-03T11:45:13.675Z,5.12
2018-01-03T11:46:18.728Z,5.06
2018-01-03T11:47:23.419Z,5.06
2018-01-03T11:48:28.119Z,5.10
2018-01-03T11:49:32.743Z,5.09
2018-01-03T11:50:37.409Z,5.11
2018-01-03T11:51:41.783Z,5.06
2018-01-03T11:52:46.348Z,5.06
2018-01-03T11:53:50.757Z,5.08
2018-01-03T11:54:55.153Z,5.12
2018-01-03T11:55:59.580Z,5.09
2018-01-03T11:57:04.427Z,5.07
2018-01-03T11:58:08.833Z,5.11
2018-01-03T11:59:11.640Z,5.12
2018-01-03T12:00:17.623Z,5.12
2018-01-03T12:01:22.055Z,5.09
2018-01-03T12:02:27.917Z,5.07
2018-01-03T12:03:32.476Z,5.10
2018-01-03T12:04:36.977Z,5.15
2018-01-03T12:05:41.638Z,5.14
2018-01-03T12:06:46.807Z,5.14
2018-01-03T12:07:51.294Z,5.14
2018-01-03T12:08:56.865Z,5.23
2018-01-03T12:10:01.395Z,5.25
2018-01-03T12:11:05.778Z,5.26
2018-01-03T12:12:10.244Z,5.25
2018-01-03T12:13:14.710Z,5.28
2018-01-03T12:14:19.620Z,5.30
2018-01-03T12:15:24.577Z,5.32
2018-01-03T12:16:29.317Z,5.35
2018-01-03T12:17:33.807Z,5.36
2018-01-03T12:18:38.258Z,5.38
2018-01-03T12:19:42.766Z,5.38
2018-01-03T12:20:47.183Z,5.38
2018-01-03T12:21:51.590Z,5.38
2018-01-03T12:22:56.022Z,5.42
2018-01-03T12:24:00.583Z,5.45
2018-01-03T12:25:05.358Z,5.51
2018-01-03T12:26:09.882Z,5.52
2018-01-03T12:27:15.184Z,5.54
2018-01-03T12:28:20.615Z,5.58
2018-01-03T12:29:25.047Z,5.63
2018-01-03T12:30:29.531Z,5.66
2018-01-03T12:31:34.171Z,5.65
2018-01-03T12:32:39.815Z,5.65
2018-01-03T12:33:49.717Z,5.66
2018-01-03T12:34:54.175Z,5.63
2018-01-03T12:35:58.722Z,5.63
2018-01-03T12:37:09.521Z,5.65
2018-01-03T12:38:14.837Z,5.70
2018-01-03T12:39:19.693Z,5.70
2018-01-03T12:40:24.274Z,5.69
2018-01-03T12:41:28.738Z,5.71
2018-01-03T12:42:33.355Z,5.75
2018-01-03T12:43:37.964Z,5.78
2018-01-03T12:44:42.503Z,5.80
2018-01-03T12:45:47.790Z,5.76
2018-01-03T12:46:52.550Z,5.77
2018-01-03T12:47:57.515Z,5.82
2018-01-03T12:49:02.847Z,5.85
2018-01-03T12:50:07.582Z,5.86
2018-01-03T12:51:12.541Z,5.87
2018-01-03T12:52:17.893Z,5.90
2018-01-03T12:53:22.540Z,5.88
2018-01-03T12:54:27.162Z,5.85
2018-01-03T12:55:33.270Z,5.88
2018-01-03T12:56:37.871Z,5.93
2018-01-03T12:57:42.620Z,5.95
2018-01-03T12:58:47.233Z,6.01
2018-01-03T12:59:51.991Z,6.06
2018-01-03T13:00:56.700Z,6.12
2018-01-03T13:02:01.279Z,6.10
2018-01-03T13:03:06.027Z,6.13
2018-01-03T13:04:10.449Z,6.11
2018-01-03T13:05:15.612Z,6.11
2018-01-03T13:06:20.101Z,6.09
2018-01-03T13:07:24.584Z,6.11
2018-01-03T13:08:29.154Z,6.17
2018-01-03T13:09:33.662Z,6.17
2018-01-03T13:10:38.284Z,6.20
2018-01-03T13:11:42.687Z,6.18
2018-01-03T13:12:47.126Z,6.16
2018-01-03T13:13:51.889Z,6.14
2018-01-03T13:14:58.077Z,6.12
2018-01-03T13:16:02.809Z,6.12
2018-01-03T13:17:07.468Z,6.16
2018-01-03T13:18:12.774Z,6.20
2018-01-03T13:19:17.332Z,6.18
2018-01-03T13:20:22.336Z,6.19
2018-01-03T13:21:27.925Z,6.23
2018-01-03T13:22:33.087Z,6.25
2018-01-03T13:23:37.885Z,6.22
2018-01-03T13:24:42.747Z,6.22
2018-01-03T13:25:47.245Z,6.19
2018-01-03T13:26:51.806Z,6.19
2018-01-03T13:27:56.229Z,6.20
2018-01-03T13:29:00.681Z,6.22
2018-01-03T13:30:07.236Z,6.23
2018-01-03T13:31:11.798Z,6.29
2018-01-03T13:32:17.667Z,6.26
2018-01-03T13:33:22.180Z,6.23
2018-01-03T13:34:26.632Z,6.28
2018-01-03T13:35:32.236Z,6.26
2018-01-03T13:36:37.057Z,6.26
2018-01-03T13:37:41.621Z,6.26
2018-01-03T13:38:46.287Z,6.24
2018-01-03T13:39:51.242Z,6.21
2018-01-03T13:40:56.672Z,6.20
2018-01-03T13:42:01.117Z,6.16
2018-01-03T13:43:08.935Z,6.16
2018-01-03T13:44:14.185Z,6.13
2018-01-03T13:45:19.158Z,6.15
2018-01-03T13:46:23.605Z,6.10
2018-01-03T13:47:29.327Z,6.09
2018-01-03T13:48:34.104Z,6.07
2018-01-03T13:49:38.665Z,6.04
2018-01-03T13:50:43.319Z,6.02
2018-01-03T13:51:48.012Z,6.05
2018-01-03T13:52:52.479Z,5.99
2018-01-03T13:53:57.118Z,6.04
2018-01-03T13:55:01.705Z,6.04
2018-01-03T13:56:07.118Z,6.05
2018-01-03T13:57:11.876Z,6.06
2018-01-03T13:58:17.524Z,6.08
2018-01-03T13:59:22.492Z,6.10
2018-01-03T14:00:27.672Z,6.06
2018-01-03T14:01:32.305Z,6.06
2018-01-03T14:02:37.712Z,6.03
2018-01-03T14:03:42.811Z,6.00
2018-01-03T14:04:47.309Z,6.02
2018-01-03T14:05:51.723Z,6.03
2018-01-03T14:06:56.374Z,6.03
2018-01-03T14:08:00.897Z,6.08
2018-01-03T14:09:05.640Z,6.09
2018-01-03T14:10:10.056Z,6.04
2018-01-03T14:11:14.620Z,5.99
2018-01-03T14:12:19.133Z,6.01
2018-01-03T14:13:23.808Z,6.02
2018-01-03T14:14:28.321Z,6.03
2018-01-03T14:15:32.960Z,6.02
2018-01-03T14:16:37.653Z,6.04
2018-01-03T14:17:42.313Z,6.08
2018-01-03T14:18:47.339Z,6.09
2018-01-03T14:19:52.748Z,6.04
2018-01-03T14:20:58.491Z,6.02
2018-01-03T14:22:03.308Z,6.04
2018-01-03T14:23:11.228Z,6.03
2018-01-03T14:24:17.161Z,6.06
2018-01-03T14:25:21.820Z,6.11
2018-01-03T14:26:26.322Z,6.17